DLH408 EDDF-KRDU
Flight info
| Callsign | DLH408 |
|---|---|
| Flight time | N/A |
| Altitude | 38000 |
| Route | OBOKA5G/25C OBOKA Z29 TORNU DCT BATAK DCT GALSO Q63 ERING L179 UGBET Q60 OKSAW DCT BIBPE DCT FELCA DCT FADZU DCT OFSOX DCT SLANY DCT TOBOR/M081F390 NATC ELSIR/N0454F400 N398B TUSKY DCT FOXBO DCT RIFLE Q167 ZJAAY TAQLE3 |
| Aircraft | A333/H-SDE3GHIJ2J3J5M1RVWXYZ/LB2D1 |
Departure
| Time | 2026-05-06 14:25 |
|---|---|
| Airport | Frankfurt Main Airport (EDDF) |
Arrival
| Time | N/A |
|---|---|
| Airport | Raleigh-Durham International Airport (KRDU) |
| Time | Latitude | Longitude | Altitude | Speed | Heading |
|---|---|---|---|---|---|
| 2026-05-06 13:42 | 50.04644 | 8.55943 | 360 ft | 0 kts | 340° |
| 2026-05-06 14:11 | 50.04633 | 8.55950 | 365 ft | 4 kts | 341° |
| 2026-05-06 14:11 | 50.04607 | 8.55963 | 366 ft | 4 kts | 342° |
| 2026-05-06 14:11 | 50.04584 | 8.55976 | 364 ft | 4 kts | 327° |
| 2026-05-06 14:11 | 50.04569 | 8.56003 | 360 ft | 4 kts | 276° |
| 2026-05-06 14:12 | 50.04571 | 8.56043 | 366 ft | 4 kts | 249° |
| 2026-05-06 14:12 | 50.04581 | 8.56078 | 364 ft | 1 kts | 250° |
| 2026-05-06 14:12 | 50.04581 | 8.56080 | 364 ft | 0 kts | 250° |
| 2026-05-06 14:16 | 50.04581 | 8.56079 | 364 ft | 0 kts | 250° |
| 2026-05-06 14:16 | 50.04580 | 8.56075 | 364 ft | 1 kts | 251° |
| 2026-05-06 14:17 | 50.04576 | 8.56058 | 368 ft | 4 kts | 250° |
| 2026-05-06 14:17 | 50.04560 | 8.56001 | 360 ft | 7 kts | 239° |
| 2026-05-06 14:17 | 50.04509 | 8.55950 | 367 ft | 7 kts | 201° |
| 2026-05-06 14:17 | 50.04466 | 8.55928 | 366 ft | 6 kts | 197° |
| 2026-05-06 14:18 | 50.04423 | 8.55912 | 368 ft | 7 kts | 189° |
| 2026-05-06 14:18 | 50.04371 | 8.55916 | 364 ft | 8 kts | 169° |
| 2026-05-06 14:18 | 50.04310 | 8.55949 | 363 ft | 10 kts | 161° |
| 2026-05-06 14:18 | 50.04262 | 8.55956 | 360 ft | 10 kts | 197° |
| 2026-05-06 14:19 | 50.04199 | 8.55913 | 360 ft | 8 kts | 181° |
| 2026-05-06 14:19 | 50.04153 | 8.55937 | 365 ft | 2 kts | 160° |
| 2026-05-06 14:19 | 50.04149 | 8.55939 | 365 ft | 1 kts | 160° |
| 2026-05-06 14:19 | 50.04133 | 8.55948 | 364 ft | 5 kts | 160° |
| 2026-05-06 14:20 | 50.04089 | 8.55975 | 363 ft | 8 kts | 153° |
| 2026-05-06 14:20 | 50.04074 | 8.56050 | 361 ft | 8 kts | 77° |
| 2026-05-06 14:20 | 50.04094 | 8.56138 | 361 ft | 10 kts | 70° |
| 2026-05-06 14:20 | 50.04121 | 8.56252 | 363 ft | 12 kts | 70° |
| 2026-05-06 14:21 | 50.04150 | 8.56372 | 363 ft | 12 kts | 69° |
| 2026-05-06 14:21 | 50.04177 | 8.56488 | 364 ft | 11 kts | 69° |
| 2026-05-06 14:21 | 50.04207 | 8.56614 | 363 ft | 14 kts | 70° |
| 2026-05-06 14:21 | 50.04243 | 8.56761 | 369 ft | 15 kts | 69° |
| 2026-05-06 14:22 | 50.04285 | 8.56939 | 369 ft | 20 kts | 70° |
| 2026-05-06 14:22 | 50.04335 | 8.57150 | 369 ft | 21 kts | 70° |
| 2026-05-06 14:22 | 50.04386 | 8.57361 | 373 ft | 21 kts | 70° |
| 2026-05-06 14:22 | 50.04423 | 8.57517 | 366 ft | 13 kts | 71° |
| 2026-05-06 14:23 | 50.04416 | 8.57622 | 369 ft | 8 kts | 130° |
| 2026-05-06 14:23 | 50.04362 | 8.57670 | 372 ft | 11 kts | 157° |
| 2026-05-06 14:23 | 50.04285 | 8.57688 | 368 ft | 11 kts | 210° |
| 2026-05-06 14:23 | 50.04250 | 8.57598 | 374 ft | 9 kts | 249° |
| 2026-05-06 14:24 | 50.04202 | 8.57397 | 372 ft | 41 kts | 250° |
| 2026-05-06 14:24 | 50.04034 | 8.56695 | 365 ft | 97 kts | 249° |
| 2026-05-06 14:24 | 50.03740 | 8.55462 | 355 ft | 145 kts | 250° |
| 2026-05-06 14:24 | 50.03359 | 8.53853 | 734 ft | 160 kts | 248° |
| 2026-05-06 14:25 | 50.02954 | 8.52233 | 1506 ft | 160 kts | 248° |
| 2026-05-06 14:25 | 50.02638 | 8.50433 | 1824 ft | 184 kts | 265° |
| 2026-05-06 14:25 | 50.02703 | 8.48328 | 2223 ft | 206 kts | 275° |
| 2026-05-06 14:25 | 50.02882 | 8.46048 | 2766 ft | 217 kts | 274° |
| 2026-05-06 14:26 | 50.02883 | 8.43690 | 3458 ft | 223 kts | 262° |
| 2026-05-06 14:26 | 50.02652 | 8.41204 | 3877 ft | 242 kts | 259° |
| 2026-05-06 14:26 | 50.02342 | 8.38574 | 4476 ft | 251 kts | 257° |
| 2026-05-06 14:26 | 50.02015 | 8.35884 | 5263 ft | 255 kts | 257° |
| 2026-05-06 14:27 | 50.01683 | 8.33150 | 6012 ft | 259 kts | 258° |
| 2026-05-06 14:27 | 50.01370 | 8.30385 | 6767 ft | 262 kts | 261° |
| 2026-05-06 14:27 | 50.01447 | 8.27552 | 7536 ft | 269 kts | 282° |
| 2026-05-06 14:27 | 50.02089 | 8.24787 | 8368 ft | 274 kts | 290° |
| 2026-05-06 14:28 | 50.02883 | 8.22072 | 9209 ft | 278 kts | 292° |
| 2026-05-06 14:28 | 50.03703 | 8.19330 | 9965 ft | 282 kts | 292° |
| 2026-05-06 14:28 | 50.04545 | 8.16483 | 10322 ft | 299 kts | 292° |
| 2026-05-06 14:28 | 50.05448 | 8.13464 | 10655 ft | 318 kts | 295° |
| 2026-05-06 14:29 | 50.06673 | 8.10475 | 11095 ft | 335 kts | 304° |
| 2026-05-06 14:29 | 50.08132 | 8.07575 | 11620 ft | 344 kts | 307° |
| 2026-05-06 14:29 | 50.09651 | 8.04654 | 12258 ft | 348 kts | 307° |
| 2026-05-06 14:29 | 50.11182 | 8.01705 | 12925 ft | 352 kts | 307° |
| 2026-05-06 14:30 | 50.12723 | 7.98722 | 13638 ft | 354 kts | 306° |
| 2026-05-06 14:30 | 50.14272 | 7.95716 | 14253 ft | 357 kts | 307° |
| 2026-05-06 14:30 | 50.15840 | 7.92667 | 14793 ft | 363 kts | 306° |
| 2026-05-06 14:30 | 50.17428 | 7.89572 | 15355 ft | 367 kts | 306° |
| 2026-05-06 14:31 | 50.19032 | 7.86442 | 15933 ft | 372 kts | 306° |
| 2026-05-06 14:31 | 50.20653 | 7.83274 | 16507 ft | 375 kts | 306° |
| 2026-05-06 14:31 | 50.22287 | 7.80076 | 17150 ft | 377 kts | 306° |
| 2026-05-06 14:31 | 50.23934 | 7.76877 | 17779 ft | 379 kts | 307° |
| 2026-05-06 14:32 | 50.25849 | 7.73994 | 18292 ft | 388 kts | 321° |
| 2026-05-06 14:32 | 50.28211 | 7.71882 | 18806 ft | 394 kts | 332° |
| 2026-05-06 14:32 | 50.30721 | 7.70122 | 19324 ft | 397 kts | 333° |
| 2026-05-06 14:32 | 50.33266 | 7.68408 | 19850 ft | 399 kts | 333° |
| 2026-05-06 14:33 | 50.35822 | 7.66686 | 20369 ft | 401 kts | 333° |
| 2026-05-06 14:33 | 50.38359 | 7.64964 | 20889 ft | 403 kts | 333° |
| 2026-05-06 14:33 | 50.40970 | 7.63178 | 21394 ft | 406 kts | 333° |
| 2026-05-06 14:33 | 50.43540 | 7.61414 | 21840 ft | 409 kts | 332° |
| 2026-05-06 14:34 | 50.46152 | 7.59618 | 22311 ft | 411 kts | 332° |
| 2026-05-06 14:34 | 50.48779 | 7.57808 | 22797 ft | 414 kts | 332° |
| 2026-05-06 14:34 | 50.51425 | 7.55982 | 23241 ft | 416 kts | 332° |
| 2026-05-06 14:34 | 50.54081 | 7.54144 | 23644 ft | 418 kts | 332° |
| 2026-05-06 14:35 | 50.56659 | 7.52027 | 23992 ft | 418 kts | 325° |
| 2026-05-06 14:35 | 50.59128 | 7.49596 | 24337 ft | 420 kts | 323° |
| 2026-05-06 14:35 | 50.61586 | 7.47083 | 24688 ft | 423 kts | 323° |
| 2026-05-06 14:35 | 50.64059 | 7.44543 | 25017 ft | 427 kts | 325° |
| 2026-05-06 14:36 | 50.66565 | 7.41969 | 25263 ft | 432 kts | 326° |
| 2026-05-06 14:36 | 50.69095 | 7.39369 | 25602 ft | 434 kts | 326° |
| 2026-05-06 14:36 | 50.71589 | 7.36685 | 25958 ft | 436 kts | 321° |
| 2026-05-06 14:36 | 50.73848 | 7.33497 | 26336 ft | 436 kts | 311° |
| 2026-05-06 14:37 | 50.75712 | 7.29724 | 26660 ft | 437 kts | 301° |
| 2026-05-06 14:37 | 50.77255 | 7.25576 | 26991 ft | 439 kts | 297° |
| 2026-05-06 14:37 | 50.78690 | 7.21327 | 27373 ft | 439 kts | 295° |
| 2026-05-06 14:37 | 50.80078 | 7.17000 | 27676 ft | 442 kts | 295° |
| 2026-05-06 14:38 | 50.81451 | 7.12644 | 27981 ft | 444 kts | 295° |
| 2026-05-06 14:38 | 50.82832 | 7.08260 | 28361 ft | 446 kts | 296° |
| 2026-05-06 14:38 | 50.84224 | 7.03872 | 28688 ft | 448 kts | 296° |
| 2026-05-06 14:38 | 50.85635 | 6.99462 | 29007 ft | 450 kts | 296° |
| 2026-05-06 14:39 | 50.87060 | 6.95026 | 29366 ft | 452 kts | 296° |
| 2026-05-06 14:39 | 50.88489 | 6.90588 | 29638 ft | 455 kts | 296° |
| 2026-05-06 14:39 | 50.89928 | 6.86118 | 29972 ft | 456 kts | 296° |
| 2026-05-06 14:39 | 50.91372 | 6.81623 | 30274 ft | 458 kts | 295° |
| 2026-05-06 14:40 | 50.92816 | 6.77119 | 30547 ft | 459 kts | 295° |
| 2026-05-06 14:40 | 50.94263 | 6.72596 | 30836 ft | 461 kts | 295° |
| 2026-05-06 14:40 | 50.95712 | 6.68057 | 31140 ft | 462 kts | 295° |
| 2026-05-06 14:40 | 50.97163 | 6.63503 | 31402 ft | 464 kts | 295° |
| 2026-05-06 14:41 | 50.98597 | 6.58994 | 31694 ft | 465 kts | 295° |
| 2026-05-06 14:41 | 51.00058 | 6.54389 | 31950 ft | 467 kts | 295° |
| 2026-05-06 14:41 | 51.01519 | 6.49779 | 32315 ft | 466 kts | 295° |
| 2026-05-06 14:41 | 51.02974 | 6.45179 | 32729 ft | 464 kts | 295° |
| 2026-05-06 14:42 | 51.04418 | 6.40605 | 33105 ft | 463 kts | 295° |
| 2026-05-06 14:42 | 51.05860 | 6.36027 | 33442 ft | 462 kts | 294° |
| 2026-05-06 14:42 | 51.07303 | 6.31440 | 33767 ft | 462 kts | 294° |
| 2026-05-06 14:42 | 51.08736 | 6.26874 | 34045 ft | 461 kts | 294° |
| 2026-05-06 14:43 | 51.10167 | 6.22305 | 34296 ft | 461 kts | 294° |
| 2026-05-06 14:43 | 51.11578 | 6.17794 | 34542 ft | 461 kts | 294° |
| 2026-05-06 14:43 | 51.12990 | 6.13208 | 34753 ft | 461 kts | 292° |
| 2026-05-06 14:43 | 51.14126 | 6.08451 | 34950 ft | 460 kts | 285° |
| 2026-05-06 14:44 | 51.15036 | 6.03571 | 35178 ft | 459 kts | 283° |
| 2026-05-06 14:44 | 51.15881 | 5.98668 | 35425 ft | 458 kts | 283° |
| 2026-05-06 14:44 | 51.16687 | 5.93759 | 35658 ft | 458 kts | 282° |
| 2026-05-06 14:45 | 51.18490 | 5.84015 | 36100 ft | 460 kts | 290° |
| 2026-05-06 14:45 | 51.19896 | 5.79430 | 36341 ft | 461 kts | 296° |
| 2026-05-06 14:45 | 51.21457 | 5.74964 | 36609 ft | 461 kts | 297° |
| 2026-05-06 14:45 | 51.23078 | 5.70557 | 36829 ft | 461 kts | 298° |
| 2026-05-06 14:46 | 51.24730 | 5.66180 | 37044 ft | 461 kts | 298° |
| 2026-05-06 14:46 | 51.26399 | 5.61795 | 37243 ft | 461 kts | 298° |
| 2026-05-06 14:46 | 51.28065 | 5.57417 | 37427 ft | 461 kts | 298° |
| 2026-05-06 14:46 | 51.29725 | 5.53032 | 37622 ft | 460 kts | 298° |
| 2026-05-06 14:47 | 51.31384 | 5.48626 | 37812 ft | 460 kts | 298° |
| 2026-05-06 14:47 | 51.34648 | 5.39892 | 37883 ft | 461 kts | 298° |
| 2026-05-06 14:48 | 51.37928 | 5.31065 | 37884 ft | 461 kts | 298° |
| 2026-05-06 14:48 | 51.41197 | 5.22238 | 37885 ft | 461 kts | 298° |
| 2026-05-06 14:49 | 51.44454 | 5.13415 | 37882 ft | 460 kts | 298° |
| 2026-05-06 14:49 | 51.47709 | 5.04572 | 37889 ft | 460 kts | 298° |
| 2026-05-06 14:50 | 51.50951 | 4.95737 | 37885 ft | 459 kts | 298° |
| 2026-05-06 14:50 | 51.54183 | 4.86897 | 37884 ft | 459 kts | 297° |
| 2026-05-06 14:51 | 51.56928 | 4.77715 | 37888 ft | 454 kts | 285° |
| 2026-05-06 14:51 | 51.58330 | 4.67844 | 37878 ft | 452 kts | 278° |
| 2026-05-06 14:52 | 51.59392 | 4.57942 | 37881 ft | 452 kts | 277° |
| 2026-05-06 14:52 | 51.60398 | 4.47951 | 37885 ft | 452 kts | 277° |
| 2026-05-06 14:53 | 51.61413 | 4.37963 | 37880 ft | 452 kts | 277° |
| 2026-05-06 14:53 | 51.62438 | 4.27968 | 37876 ft | 452 kts | 277° |
| 2026-05-06 14:54 | 51.63461 | 4.17974 | 37885 ft | 453 kts | 277° |
| 2026-05-06 14:54 | 51.64476 | 4.07972 | 37886 ft | 452 kts | 277° |
| 2026-05-06 14:55 | 51.65482 | 3.97970 | 37890 ft | 452 kts | 277° |
| 2026-05-06 14:55 | 51.66471 | 3.88028 | 37893 ft | 452 kts | 277° |
| 2026-05-06 14:56 | 51.67458 | 3.78021 | 37899 ft | 452 kts | 277° |
| 2026-05-06 14:56 | 51.68436 | 3.68006 | 37901 ft | 452 kts | 277° |
| 2026-05-06 14:57 | 51.69405 | 3.58005 | 37908 ft | 451 kts | 276° |
| 2026-05-06 14:57 | 51.70365 | 3.47993 | 37913 ft | 452 kts | 276° |
| 2026-05-06 14:58 | 51.71313 | 3.38023 | 37927 ft | 452 kts | 277° |
| 2026-05-06 14:58 | 51.72255 | 3.28023 | 37925 ft | 451 kts | 277° |
| 2026-05-06 14:59 | 51.72983 | 3.17999 | 37926 ft | 449 kts | 269° |
| 2026-05-06 14:59 | 51.72505 | 3.07987 | 37933 ft | 447 kts | 262° |
| 2026-05-06 15:00 | 51.71674 | 2.98042 | 37934 ft | 448 kts | 260° |
| 2026-05-06 15:00 | 51.70770 | 2.88103 | 37944 ft | 448 kts | 261° |
| 2026-05-06 15:01 | 51.69870 | 2.78153 | 37944 ft | 449 kts | 261° |